createdAt,value
2023-07-18T00:00:26.494Z,15.01
2023-07-18T00:01:26.459Z,15.00
2023-07-18T00:02:26.491Z,15.01
2023-07-18T00:03:26.600Z,15.01
2023-07-18T00:04:26.648Z,15.03
2023-07-18T00:05:26.776Z,15.04
2023-07-18T00:06:26.792Z,15.05
2023-07-18T00:07:26.889Z,15.04
2023-07-18T00:08:26.939Z,15.03
2023-07-18T00:09:27.011Z,15.03
2023-07-18T00:10:27.115Z,15.00
2023-07-18T00:11:27.203Z,14.95
2023-07-18T00:12:27.267Z,14.95
2023-07-18T00:13:27.352Z,14.94
2023-07-18T00:14:27.434Z,14.97
2023-07-18T00:15:27.566Z,15.00
2023-07-18T00:16:27.669Z,15.01
2023-07-18T00:17:27.785Z,15.01
2023-07-18T00:18:27.769Z,15.03
2023-07-18T00:19:27.858Z,15.03
2023-07-18T00:20:27.971Z,15.03
2023-07-18T00:21:28.045Z,15.01
2023-07-18T00:22:28.140Z,14.98
2023-07-18T00:23:28.181Z,14.94
2023-07-18T00:24:28.239Z,14.90
2023-07-18T00:25:28.387Z,14.85
2023-07-18T00:26:28.404Z,14.82
2023-07-18T00:27:28.499Z,14.79
2023-07-18T00:28:28.578Z,14.78
2023-07-18T00:29:28.658Z,14.74
2023-07-18T00:30:28.755Z,14.72
2023-07-18T00:31:28.883Z,14.74
2023-07-18T00:32:28.949Z,14.72
2023-07-18T00:33:28.959Z,14.71
2023-07-18T00:34:29.032Z,14.69
2023-07-18T00:35:29.127Z,14.67
2023-07-18T00:36:29.200Z,14.69
2023-07-18T00:37:29.273Z,14.66
2023-07-18T00:38:29.353Z,14.64
2023-07-18T00:39:29.443Z,14.63
2023-07-18T00:40:29.544Z,14.64
2023-07-18T00:41:29.598Z,14.61
2023-07-18T00:42:29.689Z,14.57
2023-07-18T00:43:29.785Z,14.57
2023-07-18T00:44:29.877Z,14.57
2023-07-18T00:45:29.979Z,14.57
2023-07-18T00:46:30.462Z,14.56
2023-07-18T00:47:30.107Z,14.53
2023-07-18T00:48:30.172Z,14.49
2023-07-18T00:49:30.270Z,14.52
2023-07-18T00:50:30.351Z,14.52
2023-07-18T00:51:30.407Z,14.49
2023-07-18T00:52:30.495Z,14.48
2023-07-18T00:53:30.596Z,14.45
2023-07-18T00:54:30.690Z,14.41
2023-07-18T00:55:30.814Z,14.39
2023-07-18T00:56:30.855Z,14.39
2023-07-18T00:57:30.946Z,14.41
2023-07-18T00:58:31.042Z,14.39
2023-07-18T00:59:31.138Z,14.39
2023-07-18T01:00:31.255Z,14.36
2023-07-18T01:01:31.365Z,14.35
2023-07-18T01:02:31.473Z,14.31
2023-07-18T01:03:31.558Z,14.29
2023-07-18T01:04:31.536Z,14.20
2023-07-18T01:05:31.643Z,14.08
2023-07-18T01:06:31.735Z,14.02
2023-07-18T01:07:31.800Z,14.02
2023-07-18T01:08:31.886Z,14.02
2023-07-18T01:09:31.995Z,14.04
2023-07-18T01:10:32.098Z,14.04
2023-07-18T01:11:32.153Z,14.06
2023-07-18T01:12:32.222Z,14.08
2023-07-18T01:13:32.309Z,14.12
2023-07-18T01:14:32.372Z,14.16
2023-07-18T01:15:32.559Z,14.16
2023-07-18T01:16:32.551Z,14.13
2023-07-18T01:17:32.678Z,14.16
2023-07-18T01:18:32.752Z,14.17
2023-07-18T01:19:32.853Z,14.19
2023-07-18T01:20:32.976Z,14.21
2023-07-18T01:21:33.009Z,14.26
2023-07-18T01:22:33.093Z,14.27
2023-07-18T01:23:33.175Z,14.26
2023-07-18T01:24:33.233Z,14.27
2023-07-18T01:25:33.349Z,14.26
2023-07-18T01:26:33.421Z,14.24
2023-07-18T01:27:33.522Z,14.26
2023-07-18T01:28:33.604Z,14.23
2023-07-18T01:29:33.693Z,14.19
2023-07-18T01:30:33.773Z,14.20
2023-07-18T01:31:33.897Z,14.19
2023-07-18T01:32:33.913Z,14.12
2023-07-18T01:33:34.004Z,14.11
2023-07-18T01:34:34.137Z,14.05
2023-07-18T01:35:34.200Z,14.06
2023-07-18T01:36:34.275Z,14.04
2023-07-18T01:37:34.347Z,14.01
2023-07-18T01:38:34.419Z,14.05
2023-07-18T01:39:34.516Z,14.08
2023-07-18T01:40:34.631Z,14.08
2023-07-18T01:41:34.684Z,14.11
2023-07-18T01:42:34.756Z,14.13
2023-07-18T01:43:34.810Z,14.12
2023-07-18T01:44:34.954Z,14.06
2023-07-18T01:45:35.014Z,14.04
2023-07-18T01:46:35.100Z,13.99
2023-07-18T01:47:35.212Z,13.96
2023-07-18T01:48:35.218Z,13.94
2023-07-18T01:49:35.324Z,13.87
2023-07-18T01:50:35.402Z,13.83
2023-07-18T01:51:35.450Z,13.83
2023-07-18T01:52:35.535Z,13.87
2023-07-18T01:53:35.599Z,13.90
2023-07-18T01:54:35.686Z,13.93
2023-07-18T01:55:35.764Z,13.96
2023-07-18T01:56:35.828Z,13.98
2023-07-18T01:57:35.888Z,13.96
2023-07-18T01:58:35.995Z,13.96
2023-07-18T01:59:36.076Z,13.94
2023-07-18T02:00:36.223Z,13.94
2023-07-18T02:01:36.256Z,13.96
2023-07-18T02:02:36.363Z,13.96
2023-07-18T02:03:36.387Z,13.94
2023-07-18T02:04:36.474Z,13.91
2023-07-18T02:05:36.545Z,13.90
2023-07-18T02:06:36.607Z,13.86
2023-07-18T02:07:36.673Z,13.84
2023-07-18T02:08:36.769Z,13.83
2023-07-18T02:09:36.827Z,13.80
2023-07-18T02:10:36.936Z,13.79
2023-07-18T02:11:36.987Z,13.75
2023-07-18T02:12:37.090Z,13.76
2023-07-18T02:13:37.156Z,13.72
2023-07-18T02:14:37.257Z,13.72
2023-07-18T02:15:37.339Z,13.71
2023-07-18T02:16:37.432Z,13.66
2023-07-18T02:17:37.522Z,13.63
2023-07-18T02:18:37.530Z,13.63
2023-07-18T02:19:37.622Z,13.63
2023-07-18T02:20:37.743Z,13.65
2023-07-18T02:21:37.793Z,13.63
2023-07-18T02:22:37.894Z,13.63
2023-07-18T02:23:37.961Z,13.66
2023-07-18T02:24:38.059Z,13.72
2023-07-18T02:25:38.163Z,13.75
2023-07-18T02:26:38.253Z,13.75
2023-07-18T02:27:38.319Z,13.79
2023-07-18T02:28:38.421Z,13.79
2023-07-18T02:29:38.514Z,13.81
2023-07-18T02:30:38.610Z,13.80
2023-07-18T02:31:38.650Z,13.79
2023-07-18T02:32:38.791Z,13.76
2023-07-18T02:33:38.795Z,13.75
2023-07-18T02:34:38.862Z,13.72
2023-07-18T02:35:38.954Z,13.71
2023-07-18T02:36:39.045Z,13.69
2023-07-18T02:37:39.109Z,13.65
2023-07-18T02:38:39.206Z,13.66
2023-07-18T02:39:39.263Z,13.66
2023-07-18T02:40:39.395Z,13.66
2023-07-18T02:41:39.448Z,13.65
2023-07-18T02:42:40.129Z,13.62
2023-07-18T02:43:39.605Z,13.65
2023-07-18T02:44:39.670Z,13.63
2023-07-18T02:45:39.747Z,13.63
2023-07-18T02:46:39.854Z,13.62
2023-07-18T02:47:40.164Z,13.61
2023-07-18T02:48:39.978Z,13.62
2023-07-18T02:49:40.049Z,13.62
2023-07-18T02:50:40.163Z,13.61
2023-07-18T02:51:40.214Z,13.62
2023-07-18T02:52:40.364Z,13.63
2023-07-18T02:53:40.355Z,13.62
2023-07-18T02:54:40.459Z,13.59
2023-07-18T02:55:40.561Z,13.57
2023-07-18T02:56:40.622Z,13.57
2023-07-18T02:57:40.720Z,13.55
2023-07-18T02:58:40.773Z,13.54
2023-07-18T02:59:40.839Z,13.50
2023-07-18T03:00:40.957Z,13.46
2023-07-18T03:01:40.994Z,13.44
2023-07-18T03:02:41.156Z,13.43
2023-07-18T03:03:41.162Z,13.41
2023-07-18T03:04:41.184Z,13.39
2023-07-18T03:05:41.277Z,13.44
2023-07-18T03:06:41.343Z,13.43
2023-07-18T03:07:41.436Z,13.48
2023-07-18T03:08:41.495Z,13.48
2023-07-18T03:09:41.563Z,13.48
2023-07-18T03:10:41.672Z,13.47
2023-07-18T03:11:41.737Z,13.41
2023-07-18T03:12:41.793Z,13.43
2023-07-18T03:13:41.868Z,13.39
2023-07-18T03:14:41.938Z,13.39
2023-07-18T03:15:42.151Z,13.38
2023-07-18T03:16:42.183Z,13.39
2023-07-18T03:17:42.179Z,13.39
2023-07-18T03:18:42.230Z,13.36
2023-07-18T03:19:42.289Z,13.38
2023-07-18T03:20:42.738Z,13.38
2023-07-18T03:21:42.450Z,13.39
2023-07-18T03:22:42.544Z,13.47
2023-07-18T03:23:42.585Z,13.47
2023-07-18T03:24:42.668Z,13.50
2023-07-18T03:25:42.938Z,13.53
2023-07-18T03:26:42.850Z,13.53
2023-07-18T03:27:42.905Z,13.51
2023-07-18T03:28:43.040Z,13.50
2023-07-18T03:29:43.068Z,13.48
2023-07-18T03:30:43.425Z,13.48
2023-07-18T03:31:43.239Z,13.48
2023-07-18T03:32:43.349Z,13.48
2023-07-18T03:33:43.379Z,13.46
2023-07-18T03:34:43.447Z,13.44
2023-07-18T03:35:43.846Z,13.39
2023-07-18T03:36:43.589Z,13.39
2023-07-18T03:37:43.696Z,13.36
2023-07-18T03:38:43.765Z,13.36
2023-07-18T03:39:43.846Z,13.35
2023-07-18T03:40:43.931Z,13.36
2023-07-18T03:41:43.958Z,13.38
2023-07-18T03:42:44.060Z,13.38
2023-07-18T03:43:44.124Z,13.39
2023-07-18T03:44:44.198Z,13.43
2023-07-18T03:45:44.293Z,13.43
2023-07-18T03:46:44.363Z,13.46
2023-07-18T03:47:44.412Z,13.46
2023-07-18T03:48:44.539Z,13.46
2023-07-18T03:49:44.539Z,13.44
2023-07-18T03:50:44.618Z,13.43
2023-07-18T03:51:44.680Z,13.44
2023-07-18T03:52:44.773Z,13.44
2023-07-18T03:53:44.811Z,13.44
2023-07-18T03:54:44.878Z,13.41
2023-07-18T03:55:44.979Z,13.43
2023-07-18T03:56:45.026Z,13.46
2023-07-18T03:57:45.098Z,13.48
2023-07-18T03:58:45.185Z,13.53
2023-07-18T03:59:45.269Z,13.51
2023-07-18T04:00:45.364Z,13.53
2023-07-18T04:01:45.449Z,13.55
2023-07-18T04:02:47.253Z,13.55
2023-07-18T04:03:45.574Z,13.59
2023-07-18T04:04:45.641Z,13.61
2023-07-18T04:05:45.738Z,13.62
2023-07-18T04:06:45.795Z,13.62
2023-07-18T04:07:45.853Z,13.59
2023-07-18T04:08:45.950Z,13.61
2023-07-18T04:09:46.013Z,13.65
2023-07-18T04:10:46.130Z,13.68
2023-07-18T04:11:46.172Z,13.69
2023-07-18T04:12:46.286Z,13.69
2023-07-18T04:13:46.315Z,13.73
2023-07-18T04:14:46.409Z,13.76
2023-07-18T04:15:46.551Z,13.76
2023-07-18T04:16:46.656Z,13.79
2023-07-18T04:17:46.705Z,13.80
2023-07-18T04:18:46.745Z,13.81
2023-07-18T04:19:46.837Z,13.81
2023-07-18T04:20:46.945Z,13.79
2023-07-18T04:21:46.996Z,13.80
2023-07-18T04:22:47.149Z,13.81
2023-07-18T04:23:47.170Z,13.81
2023-07-18T04:24:47.259Z,13.81
2023-07-18T04:25:47.361Z,13.83
2023-07-18T04:26:47.442Z,13.87
2023-07-18T04:27:47.537Z,13.87
2023-07-18T04:28:47.618Z,13.90
2023-07-18T04:29:47.726Z,13.91
2023-07-18T04:30:47.822Z,13.91
2023-07-18T04:31:47.966Z,13.96
2023-07-18T04:32:48.166Z,13.98
2023-07-18T04:33:48.030Z,13.98
2023-07-18T04:34:48.107Z,14.02
2023-07-18T04:35:48.208Z,14.05
2023-07-18T04:36:48.292Z,14.11
2023-07-18T04:37:48.337Z,14.12
2023-07-18T04:38:48.410Z,14.13
2023-07-18T04:39:48.484Z,14.17
2023-07-18T04:40:48.576Z,14.20
2023-07-18T04:41:55.169Z,14.21
2023-07-18T04:42:48.726Z,14.21
2023-07-18T04:43:48.807Z,14.20
2023-07-18T04:44:48.896Z,14.24
2023-07-18T04:45:49.066Z,14.30
2023-07-18T04:46:49.102Z,14.34
2023-07-18T04:47:49.187Z,14.38
2023-07-18T04:48:49.207Z,14.39
2023-07-18T04:49:49.310Z,14.42
2023-07-18T04:50:49.370Z,14.44
2023-07-18T04:51:49.440Z,14.46
2023-07-18T04:52:49.512Z,14.46
2023-07-18T04:53:49.605Z,14.52
2023-07-18T04:54:49.667Z,14.53
2023-07-18T04:55:49.742Z,14.56
2023-07-18T04:56:49.861Z,14.60
2023-07-18T04:57:49.898Z,14.57
2023-07-18T04:58:49.968Z,14.59
2023-07-18T04:59:50.058Z,14.63
2023-07-18T05:00:50.171Z,14.67
2023-07-18T05:01:50.289Z,14.69
2023-07-18T05:02:50.350Z,14.71
2023-07-18T05:03:57.761Z,14.74
2023-07-18T05:04:50.515Z,14.78
2023-07-18T05:05:50.577Z,14.82
2023-07-18T05:06:50.637Z,14.86
2023-07-18T05:07:50.719Z,14.93
2023-07-18T05:08:50.796Z,14.94
2023-07-18T05:09:50.878Z,15.01
2023-07-18T05:10:50.993Z,15.03
2023-07-18T05:11:51.017Z,15.07
2023-07-18T05:12:51.120Z,15.11
2023-07-18T05:13:51.213Z,15.13
2023-07-18T05:14:51.301Z,15.19
2023-07-18T05:15:51.405Z,15.23
2023-07-18T05:16:51.464Z,15.27
2023-07-18T05:17:51.585Z,15.25
2023-07-18T05:18:51.595Z,15.27
2023-07-18T05:19:51.655Z,15.31
2023-07-18T05:20:51.758Z,15.35
2023-07-18T05:21:51.836Z,15.40
2023-07-18T05:22:51.936Z,15.43
2023-07-18T05:23:52.008Z,15.40
2023-07-18T05:24:52.089Z,15.40
2023-07-18T05:25:52.180Z,15.44
2023-07-18T05:26:52.253Z,15.52
2023-07-18T05:27:52.318Z,15.56
2023-07-18T05:28:52.401Z,15.60
2023-07-18T05:29:52.475Z,15.67
2023-07-18T05:30:52.616Z,15.67
2023-07-18T05:31:52.670Z,15.73
2023-07-18T05:32:52.773Z,15.77
2023-07-18T05:33:52.843Z,15.78
2023-07-18T05:34:52.934Z,15.84
2023-07-18T05:35:53.015Z,15.89
2023-07-18T05:36:53.092Z,15.98
2023-07-18T05:37:53.189Z,16.03
2023-07-18T05:38:53.243Z,16.07
2023-07-18T05:39:53.308Z,16.17
2023-07-18T05:40:53.455Z,16.23
2023-07-18T05:41:53.478Z,16.30
2023-07-18T05:42:53.546Z,16.42
2023-07-18T05:43:53.605Z,16.55
2023-07-18T05:44:53.703Z,16.67
2023-07-18T05:45:53.868Z,16.82
2023-07-18T05:46:53.875Z,16.99
2023-07-18T05:47:53.925Z,17.18
2023-07-18T05:48:54.023Z,17.45
2023-07-18T05:49:54.108Z,17.74
2023-07-18T05:50:54.207Z,17.98
2023-07-18T05:51:54.255Z,18.17
2023-07-18T05:52:54.348Z,18.25
2023-07-18T05:53:54.430Z,18.34
2023-07-18T05:54:54.540Z,18.42
2023-07-18T05:55:54.622Z,18.50
2023-07-18T05:56:54.659Z,18.71
2023-07-18T05:57:54.733Z,18.89
2023-07-18T05:58:54.810Z,18.96
2023-07-18T05:59:54.870Z,19.06
2023-07-18T06:00:55.092Z,18.99
2023-07-18T06:01:55.064Z,18.94
2023-07-18T06:02:58.365Z,18.87
2023-07-18T06:03:55.232Z,18.87
2023-07-18T06:04:55.258Z,18.78
2023-07-18T06:05:55.347Z,18.83
2023-07-18T06:06:55.394Z,18.90
2023-07-18T06:07:55.473Z,18.93
2023-07-18T06:08:55.562Z,18.97
2023-07-18T06:09:55.660Z,19.02
2023-07-18T06:10:55.913Z,19.07
2023-07-18T06:11:55.853Z,19.06
2023-07-18T06:12:55.947Z,19.07
2023-07-18T06:13:56.020Z,19.10
2023-07-18T06:14:56.055Z,19.09
2023-07-18T06:15:56.202Z,19.07
2023-07-18T06:16:56.286Z,19.01
2023-07-18T06:17:56.388Z,19.02
2023-07-18T06:18:56.414Z,19.07
2023-07-18T06:19:56.507Z,19.09
2023-07-18T06:20:56.585Z,19.10
2023-07-18T06:21:56.662Z,19.10
2023-07-18T06:22:56.814Z,19.10
2023-07-18T06:24:04.749Z,19.12
2023-07-18T06:24:56.915Z,19.12
2023-07-18T06:25:57.029Z,19.17
2023-07-18T06:26:57.081Z,19.23
2023-07-18T06:27:57.183Z,19.24
2023-07-18T06:28:57.246Z,19.24
2023-07-18T06:29:57.356Z,19.25
2023-07-18T06:30:57.456Z,19.25
2023-07-18T06:31:57.493Z,19.30
2023-07-18T06:32:57.614Z,19.34
2023-07-18T06:33:57.632Z,19.42
2023-07-18T06:35:00.889Z,19.45
2023-07-18T06:35:57.867Z,19.45
2023-07-18T06:36:57.873Z,19.45
2023-07-18T06:37:57.973Z,19.50
2023-07-18T06:38:58.062Z,19.58
2023-07-18T06:39:58.155Z,19.55
2023-07-18T06:40:58.238Z,19.55
2023-07-18T06:41:58.331Z,19.62
2023-07-18T06:42:58.418Z,19.71
2023-07-18T06:43:58.511Z,19.83
2023-07-18T06:44:58.595Z,19.94
2023-07-18T06:45:58.705Z,20.02
2023-07-18T06:46:58.773Z,20.13
2023-07-18T06:47:58.890Z,20.20
2023-07-18T06:48:58.921Z,20.22
2023-07-18T06:49:59.025Z,20.31
2023-07-18T06:50:59.117Z,20.44
2023-07-18T06:51:59.211Z,20.57
2023-07-18T06:52:59.300Z,20.72
2023-07-18T06:53:59.419Z,20.78
2023-07-18T06:54:59.463Z,20.78
2023-07-18T06:55:59.571Z,20.93
2023-07-18T06:56:59.648Z,21.05
2023-07-18T06:57:59.707Z,21.18
2023-07-18T06:58:59.783Z,21.37
2023-07-18T06:59:59.868Z,21.55
2023-07-18T07:00:59.991Z,21.81
2023-07-18T07:02:00.066Z,22.01
2023-07-18T07:03:00.205Z,22.12
2023-07-18T07:04:00.254Z,22.19
2023-07-18T07:05:00.290Z,22.26
2023-07-18T07:06:00.388Z,22.41
2023-07-18T07:07:00.460Z,22.61
2023-07-18T07:08:00.538Z,22.75
2023-07-18T07:09:00.634Z,22.97
2023-07-18T07:10:00.736Z,22.99
2023-07-18T07:11:00.822Z,23.01
2023-07-18T07:12:00.884Z,23.06
2023-07-18T07:13:00.940Z,23.03
2023-07-18T07:14:01.047Z,23.21
2023-07-18T07:15:01.105Z,23.06
2023-07-18T07:16:01.198Z,22.93
2023-07-18T07:17:01.275Z,22.89
2023-07-18T07:18:01.373Z,22.85
2023-07-18T07:19:01.416Z,23.00
2023-07-18T07:20:01.516Z,23.11
2023-07-18T07:21:01.590Z,23.03
2023-07-18T07:22:01.665Z,22.99
2023-07-18T07:23:01.830Z,23.11
2023-07-18T07:24:01.848Z,23.06
2023-07-18T07:25:01.900Z,23.21
2023-07-18T07:26:01.994Z,23.35
2023-07-18T07:27:02.069Z,23.39
2023-07-18T07:28:02.161Z,23.44
2023-07-18T07:29:02.238Z,23.67
2023-07-18T07:30:02.304Z,23.82
2023-07-18T07:31:02.598Z,23.92
2023-07-18T07:32:02.495Z,24.18
2023-07-18T07:33:02.564Z,24.52
2023-07-18T07:34:02.664Z,24.64
2023-07-18T07:35:02.742Z,24.67
2023-07-18T07:36:02.817Z,25.02
2023-07-18T07:37:02.881Z,25.17
2023-07-18T07:38:02.981Z,25.35
2023-07-18T07:39:03.037Z,25.39
2023-07-18T07:40:03.133Z,25.08
2023-07-18T07:41:03.206Z,25.11
2023-07-18T07:42:03.303Z,25.98
2023-07-18T07:43:03.367Z,26.49
2023-07-18T07:44:03.435Z,26.42
2023-07-18T07:45:03.513Z,26.34
2023-07-18T07:46:03.662Z,26.83
2023-07-18T07:47:03.674Z,26.44
2023-07-18T07:48:03.785Z,26.79
2023-07-18T07:49:05.680Z,27.61
2023-07-18T07:50:03.909Z,28.33
2023-07-18T07:51:03.972Z,28.39
2023-07-18T07:52:04.064Z,28.70
2023-07-18T07:53:04.148Z,28.40
2023-07-18T07:54:04.208Z,28.46
2023-07-18T07:55:04.297Z,28.48
2023-07-18T07:56:04.409Z,28.38
2023-07-18T07:57:04.465Z,28.60
2023-07-18T07:58:04.546Z,29.03
2023-07-18T07:59:11.130Z,29.39
2023-07-18T08:00:04.677Z,29.33
2023-07-18T08:01:04.767Z,29.20
2023-07-18T08:02:04.893Z,28.95
2023-07-18T08:03:04.991Z,28.79
2023-07-18T08:04:05.103Z,28.82
2023-07-18T08:05:05.176Z,28.95
2023-07-18T08:06:05.187Z,29.35
2023-07-18T08:07:05.246Z,29.86
2023-07-18T08:08:05.330Z,30.60
2023-07-18T08:09:05.438Z,31.16
2023-07-18T08:10:05.499Z,31.65
2023-07-18T08:11:05.578Z,31.53
2023-07-18T08:12:05.656Z,31.34
2023-07-18T08:13:05.771Z,31.25
2023-07-18T08:14:05.793Z,31.23
2023-07-18T08:15:05.915Z,31.42
2023-07-18T08:16:06.007Z,30.93
2023-07-18T08:17:06.046Z,30.67
2023-07-18T08:18:06.121Z,30.45
2023-07-18T08:19:06.200Z,30.01
2023-07-18T08:20:07.888Z,29.64
2023-07-18T08:21:06.395Z,29.17
2023-07-18T08:22:06.450Z,28.91
2023-07-18T08:23:06.641Z,29.35
2023-07-18T08:24:06.618Z,29.48
2023-07-18T08:25:06.697Z,29.15
2023-07-18T08:26:06.764Z,29.33
2023-07-18T08:27:06.816Z,29.94
2023-07-18T08:28:06.925Z,29.97
2023-07-18T08:29:07.015Z,29.32
2023-07-18T08:30:07.066Z,29.10
2023-07-18T08:31:07.185Z,29.25
2023-07-18T08:32:07.304Z,29.51
2023-07-18T08:33:07.388Z,29.69
2023-07-18T08:34:07.400Z,30.16
2023-07-18T08:35:07.456Z,30.68
2023-07-18T08:36:07.540Z,31.31
2023-07-18T08:37:07.658Z,31.46
2023-07-18T08:38:07.701Z,31.65
2023-07-18T08:39:11.993Z,32.19
2023-07-18T08:40:07.843Z,32.85
2023-07-18T08:41:07.952Z,32.59
2023-07-18T08:42:08.058Z,31.84
2023-07-18T08:43:08.102Z,31.95
2023-07-18T08:44:08.176Z,32.51
2023-07-18T08:45:08.270Z,33.28
2023-07-18T08:46:08.403Z,33.81
2023-07-18T08:47:08.401Z,33.49
2023-07-18T08:48:08.557Z,32.95
2023-07-18T08:49:08.576Z,32.78
2023-07-18T08:50:08.723Z,32.68
2023-07-18T08:51:08.797Z,32.72
2023-07-18T08:52:08.820Z,32.28
2023-07-18T08:53:08.902Z,32.07
2023-07-18T08:54:08.957Z,31.50
2023-07-18T08:55:09.050Z,31.75
2023-07-18T08:56:09.128Z,31.98
2023-07-18T08:57:09.188Z,32.10
2023-07-18T08:58:09.269Z,32.36
2023-07-18T08:59:09.328Z,32.95
2023-07-18T09:00:09.410Z,33.77
2023-07-18T09:01:09.486Z,34.65
2023-07-18T09:02:09.594Z,34.72
2023-07-18T09:03:09.650Z,34.26
2023-07-18T09:04:09.720Z,33.87
2023-07-18T09:05:09.769Z,33.20
2023-07-18T09:06:09.873Z,32.96
2023-07-18T09:07:09.894Z,32.83
2023-07-18T09:08:09.997Z,32.85
2023-07-18T09:09:10.048Z,32.51
2023-07-18T09:10:10.152Z,31.94
2023-07-18T09:11:10.228Z,31.72
2023-07-18T09:12:10.308Z,31.57
2023-07-18T09:13:10.389Z,31.20
2023-07-18T09:14:10.428Z,31.41
2023-07-18T09:15:10.494Z,31.40
2023-07-18T09:16:10.574Z,31.84
2023-07-18T09:17:10.707Z,32.41
2023-07-18T09:18:10.815Z,33.07
2023-07-18T09:19:10.829Z,33.66
2023-07-18T09:20:10.903Z,34.05
2023-07-18T09:21:10.996Z,34.45
2023-07-18T09:22:11.048Z,35.12
2023-07-18T09:23:11.305Z,35.40
2023-07-18T09:24:11.203Z,35.47
2023-07-18T09:25:11.279Z,35.24
2023-07-18T09:26:11.352Z,35.03
2023-07-18T09:27:11.428Z,34.40
2023-07-18T09:28:11.499Z,33.99
2023-07-18T09:29:11.557Z,33.43
2023-07-18T09:30:11.620Z,33.35
2023-07-18T09:31:11.765Z,32.62
2023-07-18T09:32:11.833Z,31.98
2023-07-18T09:33:11.929Z,31.56
2023-07-18T09:34:11.990Z,31.32
2023-07-18T09:35:12.098Z,31.32
2023-07-18T09:36:12.165Z,31.30
2023-07-18T09:37:12.225Z,31.23
2023-07-18T09:38:12.292Z,31.03
2023-07-18T09:39:12.357Z,30.82
2023-07-18T09:40:12.421Z,30.82
2023-07-18T09:42:13.669Z,31.78
2023-07-18T09:43:12.710Z,32.27
2023-07-18T09:44:26.966Z,32.65
2023-07-18T09:45:12.878Z,32.95
2023-07-18T09:46:13.011Z,33.34
2023-07-18T09:47:13.027Z,33.07
2023-07-18T09:48:13.123Z,32.71
2023-07-18T09:49:14.819Z,32.59
2023-07-18T09:50:13.275Z,32.17
2023-07-18T09:51:13.376Z,32.05
2023-07-18T09:52:13.417Z,31.95
2023-07-18T09:53:13.545Z,31.85
2023-07-18T09:54:13.582Z,31.84
2023-07-18T09:55:13.678Z,31.57
2023-07-18T09:56:13.784Z,31.46
2023-07-18T09:57:13.902Z,31.37
2023-07-18T09:58:13.900Z,31.13
2023-07-18T09:59:13.974Z,31.01
2023-07-18T10:00:14.039Z,30.78
2023-07-18T10:01:14.201Z,30.46
2023-07-18T10:02:14.214Z,30.11
2023-07-18T10:03:14.390Z,30.06
2023-07-18T10:04:14.377Z,29.89
2023-07-18T10:05:14.512Z,29.78
2023-07-18T10:06:16.178Z,29.76
2023-07-18T10:07:14.646Z,29.69
2023-07-18T10:08:14.706Z,29.71
2023-07-18T10:09:14.809Z,29.73
2023-07-18T10:10:14.875Z,29.70
2023-07-18T10:11:14.950Z,29.55
2023-07-18T10:12:15.004Z,29.41
2023-07-18T10:13:16.934Z,29.23
2023-07-18T10:14:15.165Z,29.12
2023-07-18T10:15:15.231Z,28.79
2023-07-18T10:16:15.401Z,28.62
2023-07-18T10:17:15.470Z,28.33
2023-07-18T10:18:15.513Z,28.24
2023-07-18T10:19:15.589Z,28.25
2023-07-18T10:20:15.657Z,28.21
2023-07-18T10:21:15.748Z,28.06
2023-07-18T10:22:15.801Z,28.08
2023-07-18T10:23:15.952Z,28.09
2023-07-18T10:24:15.992Z,28.01
2023-07-18T10:25:16.076Z,28.06
2023-07-18T10:26:16.164Z,28.05
2023-07-18T10:27:16.231Z,27.88
2023-07-18T10:28:16.301Z,27.77
2023-07-18T10:29:16.365Z,27.80
2023-07-18T10:30:16.495Z,27.84
2023-07-18T10:31:16.606Z,27.88
2023-07-18T10:32:16.624Z,27.77
2023-07-18T10:33:16.737Z,27.59
2023-07-18T10:34:16.787Z,27.46
2023-07-18T10:35:16.871Z,27.16
2023-07-18T10:36:16.939Z,27.15
2023-07-18T10:37:17.070Z,27.13
2023-07-18T10:38:17.074Z,27.16
2023-07-18T10:39:17.161Z,27.18
2023-07-18T10:40:17.228Z,27.20
2023-07-18T10:41:17.477Z,27.18
2023-07-18T10:42:17.370Z,27.16
2023-07-18T10:43:17.597Z,27.11
2023-07-18T10:44:17.536Z,27.05
2023-07-18T10:45:17.606Z,27.11
2023-07-18T10:46:17.732Z,27.13
2023-07-18T10:47:17.973Z,27.16
2023-07-18T10:48:17.881Z,27.13
2023-07-18T10:49:17.875Z,27.18
2023-07-18T10:50:20.178Z,27.25
2023-07-18T10:51:18.257Z,27.30
2023-07-18T10:52:18.111Z,27.31
2023-07-18T10:53:18.178Z,27.28
2023-07-18T10:54:18.247Z,27.09
2023-07-18T10:55:18.331Z,27.11
2023-07-18T10:56:18.413Z,27.24
2023-07-18T10:57:18.477Z,27.21
2023-07-18T10:58:18.548Z,27.38
2023-07-18T10:59:18.619Z,27.63
2023-07-18T11:00:18.720Z,27.93
2023-07-18T11:01:19.260Z,28.15
2023-07-18T11:02:18.890Z,28.40
2023-07-18T11:03:18.938Z,28.54
2023-07-18T11:04:19.086Z,28.58
2023-07-18T11:05:19.075Z,28.61
2023-07-18T11:06:19.173Z,28.70
2023-07-18T11:07:19.207Z,28.88
2023-07-18T11:08:19.274Z,28.94
2023-07-18T11:09:21.472Z,29.08
2023-07-18T11:10:19.413Z,29.17
2023-07-18T11:11:20.035Z,29.29
2023-07-18T11:12:19.582Z,29.32
2023-07-18T11:13:19.616Z,29.35
2023-07-18T11:14:19.689Z,29.37
2023-07-18T11:15:19.763Z,29.45
2023-07-18T11:16:19.873Z,29.37
2023-07-18T11:17:19.915Z,29.23
2023-07-18T11:18:19.983Z,29.11
2023-07-18T11:19:20.061Z,28.98
2023-07-18T11:20:20.122Z,29.08
2023-07-18T11:21:20.796Z,29.14
2023-07-18T11:22:20.260Z,29.21
2023-07-18T11:23:20.336Z,29.25
2023-07-18T11:24:20.403Z,29.35
2023-07-18T11:25:20.469Z,29.55
2023-07-18T11:26:20.583Z,29.62
2023-07-18T11:27:20.669Z,29.74
2023-07-18T11:28:20.778Z,30.00
2023-07-18T11:29:20.796Z,30.13
2023-07-18T11:30:20.886Z,30.19
2023-07-18T11:31:30.680Z,30.26
2023-07-18T11:32:21.065Z,30.29
2023-07-18T11:33:21.116Z,30.28
2023-07-18T11:34:21.210Z,30.26
2023-07-18T11:35:21.280Z,30.16
2023-07-18T11:36:21.350Z,30.10
2023-07-18T11:37:21.398Z,30.03
2023-07-18T11:38:21.503Z,29.94
2023-07-18T11:39:22.132Z,29.86
2023-07-18T11:40:21.654Z,29.71
2023-07-18T11:41:21.722Z,29.47
2023-07-18T11:42:21.784Z,29.20
2023-07-18T11:43:21.870Z,29.02
2023-07-18T11:44:21.921Z,28.94
2023-07-18T11:45:21.987Z,28.92
2023-07-18T11:46:22.112Z,28.92
2023-07-18T11:47:22.182Z,28.98
2023-07-18T11:48:22.319Z,28.89
2023-07-18T11:49:22.339Z,28.62
2023-07-18T11:50:22.410Z,28.48
2023-07-18T11:51:22.492Z,28.45
2023-07-18T11:52:22.557Z,28.51
2023-07-18T11:53:22.639Z,28.48
2023-07-18T11:54:22.724Z,28.48
2023-07-18T11:55:22.781Z,28.46
2023-07-18T11:56:24.960Z,28.46
2023-07-18T11:57:22.932Z,28.45
2023-07-18T11:58:23.026Z,28.50
2023-07-18T11:59:23.095Z,28.54
2023-07-18T12:00:23.154Z,28.40
2023-07-18T12:01:23.426Z,28.30
2023-07-18T12:02:25.565Z,28.25
2023-07-18T12:03:23.437Z,28.11
2023-07-18T12:04:23.481Z,28.05
2023-07-18T12:05:25.977Z,27.99
2023-07-18T12:06:23.621Z,28.08
2023-07-18T12:07:23.636Z,28.21
2023-07-18T12:08:25.922Z,28.32
2023-07-18T12:09:23.851Z,28.30
2023-07-18T12:10:26.078Z,28.27
2023-07-18T12:11:24.247Z,28.23
2023-07-18T12:12:24.029Z,28.33
2023-07-18T12:13:24.091Z,28.40
2023-07-18T12:14:24.196Z,28.52
2023-07-18T12:15:24.258Z,28.69
2023-07-18T12:16:24.383Z,28.74
2023-07-18T12:17:24.451Z,28.83
2023-07-18T12:18:24.503Z,28.98
2023-07-18T12:19:24.594Z,29.08
2023-07-18T12:20:24.628Z,29.12
2023-07-18T12:21:24.707Z,28.97
2023-07-18T12:22:24.762Z,28.85
2023-07-18T12:23:24.822Z,28.82
2023-07-18T12:24:24.905Z,28.77
2023-07-18T12:25:24.964Z,28.17
2023-07-18T12:26:26.000Z,27.87
2023-07-18T12:27:25.123Z,27.81
2023-07-18T12:28:25.240Z,27.95
2023-07-18T12:29:25.297Z,27.90
2023-07-18T12:30:25.387Z,27.99
2023-07-18T12:31:25.868Z,28.09
2023-07-18T12:32:29.110Z,28.20
2023-07-18T12:33:25.622Z,28.27
2023-07-18T12:34:25.688Z,28.43
2023-07-18T12:35:25.742Z,28.54
2023-07-18T12:36:25.890Z,28.48
2023-07-18T12:37:25.900Z,28.54
2023-07-18T12:38:28.262Z,28.57
2023-07-18T12:39:26.036Z,28.60
2023-07-18T12:40:26.151Z,28.57
2023-07-18T12:41:26.191Z,28.64
2023-07-18T12:42:26.258Z,28.60
2023-07-18T12:43:26.345Z,28.72
2023-07-18T12:44:28.095Z,28.80
2023-07-18T12:45:26.497Z,28.48
2023-07-18T12:46:26.693Z,28.38
2023-07-18T12:47:26.648Z,28.33
2023-07-18T12:48:26.710Z,28.42
2023-07-18T12:50:27.706Z,28.57
2023-07-18T12:51:26.974Z,28.73
2023-07-18T12:52:27.039Z,28.83
2023-07-18T12:53:27.098Z,28.89
2023-07-18T12:54:27.193Z,28.97
2023-07-18T12:55:27.302Z,28.98